Nearby METAR Reports

 

KMTN - Baltimore/Martin, Maryland, USA
Distance from station: SSE 8mi, 13km
Updated: Thu, 31-Jul-2014 4:55pm EDT
Partly cloudy
Partly cloudy
 Wind from SSE
Wind: SSE 13 mph , 20 km/h
Temperature: 84°F , 29°C
Heat Index: 87°F , 31°C
Dew Point: 68°F , 20°C
Humidity: 58%
Barometer: 30.10 inHg , 1019.3 hPa
Clouds: Partly cloudy
Visibility: 10 miles , 16 km
Cloud details: Partly cloudy 15000 ft
2014/07/31 20:55 KMTN 312055Z 15011KT 10SM SCT150 29/20 A3010
KDMH - Baltimore/Dwntwn, Maryland, USA
Distance from station: SW 12mi, 19km
Updated: Thu, 31-Jul-2014 4:54pm EDT

 
Temperature: 86°F , 30°C
Heat Index: 86°F , 30°C
Dew Point: 61°F , 16°C
Humidity: 43%
Barometer: 30.07 inHg , 1018.3 hPa
2014/07/31 20:54 KDMH 312054Z AUTO 30/16 A3007 RMK AO1 SLP183 T03000156 58003
 
KBWI - Balto/Wash Intl, Maryland, USA
Distance from station: SSW 20mi, 33km
Updated: Thu, 31-Jul-2014 4:54pm EDT
Mostly cloudy
Mostly cloudy
 Wind from SSW
Wind: SSW 7 mph , 11 km/h
Temperature: 84°F , 29°C
Heat Index: 83°F , 28°C
Dew Point: 57°F , 14°C
Humidity: 40%
Barometer: 30.07 inHg , 1018.3 hPa
Clouds: Mostly cloudy
Visibility: 10 miles , 16 km
Cloud details: Partly cloudy 6500 ft
Partly cloudy 8000 ft
Partly cloudy 12000 ft
Mostly cloudy 25000 ft
2014/07/31 20:54 KBWI 312054Z 21006KT 10SM SCT065TCU SCT080 SCT120 BKN250 29/14 A3007 RMK AO2 SLP182 TCU OHD-NE T02890139 58003
KDMW - Carroll Cnty, Maryland, USA
Distance from station: WNW 30mi, 48km
Updated: Thu, 31-Jul-2014 5:15pm EDT
Clear
Clear
 Wind from WSW
Wind: WSW 6 mph , 9 km/h
Temperature: 82°F , 28°C
Heat Index: 82°F , 28°C
Dew Point: 59°F , 15°C
Humidity: 45%
Barometer: 30.10 inHg , 1019.3 hPa
Clouds: Clear
Visibility: 10 miles , 16 km
2014/07/31 21:15 KDMW 312115Z AUTO 24005KT 10SM CLR 28/15 A3010 RMK AO2
 
KNAK - Annapolis/Naval, Maryland, USA
Distance from station: S 30mi, 48km
Updated: Thu, 31-Jul-2014 4:54pm EDT
Partly cloudy
Partly cloudy
 Wind from SSE
Wind: SSE 13 mph , 20 km/h
Temperature: 82°F , 28°C
Heat Index: 83°F , 28°C
Dew Point: 63°F , 17°C
Humidity: 51%
Barometer: 30.08 inHg , 1018.6 hPa
Clouds: Partly cloudy
Visibility: 10 miles , 16 km
Cloud details: Partly cloudy 11000 ft
2014/07/31 20:54 KNAK 312054Z AUTO 16011KT 10SM SCT110 28/17 A3008 RMK AO2 SLP188 T02780172 56003
KW29 - Stevensville, Maryland, USA
Distance from station: SSE 31mi, 50km
Updated: Thu, 31-Jul-2014 5:18pm EDT

 Wind from S
Wind: S 12 mph , 19 km/h
Temperature: 82°F , 28°C
Heat Index: 82°F , 28°C
Dew Point: 59°F , 15°C
Humidity: 45%
Barometer: 30.09 inHg , 1019 hPa
Visibility: 10 miles , 16 km
2014/07/31 21:18 KW29 312118Z AUTO 17010KT 10SM 28/15 A3009 RMK AO1
 
KCGS - College Park, Maryland, USA
Distance from station: SW 38mi, 61km
Updated: Thu, 31-Jul-2014 5:15pm EDT
Partly cloudy
Partly cloudy
 Wind from S
Wind: S 3 mph , 6 km/h
Temperature: 86°F , 30°C
Dew Point: 55°F , 13°C
Humidity: 35%
Barometer: 30.07 inHg , 1018.3 hPa
Clouds: Partly cloudy
Visibility: 10 miles , 16 km
Cloud details: Partly cloudy 6500 ft
Partly cloudy 8500 ft
2014/07/31 21:15 KCGS 312115Z AUTO 19003KT 10SM SCT065 SCT085 30/13 A3007 RMK AO1
KGAI - Gaithersburg, Maryland, USA
Distance from station: WSW 40mi, 65km
Updated: Thu, 31-Jul-2014 5:15pm EDT
Partly cloudy
Partly cloudy
 Wind from SW
Wind: SW 5 mph , 7 km/h
Temperature: 84°F , 29°C
Heat Index: 84°F , 29°C
Dew Point: 59°F , 15°C
Humidity: 43%
Barometer: 30.12 inHg , 1020 hPa
Clouds: Partly cloudy
Visibility: 10 miles , 16 km
Cloud details: Partly cloudy 6500 ft
2014/07/31 21:15 KGAI 312115Z AUTO 23004KT 10SM SCT065 29/15 A3012 RMK AO1
 
KTHV - York, Pennsylvania, USA
Distance from station: NNW 40mi, 65km
Updated: Thu, 31-Jul-2014 4:53pm EDT
Clear
Clear
 Wind from SW
Wind: SW 7 mph , 11 km/h
Temperature: 81°F , 27°C
Heat Index: 81°F , 27°C
Dew Point: 57°F , 14°C
Humidity: 45%
Barometer: 30.08 inHg , 1018.6 hPa
Clouds: Clear
Visibility: 10 miles , 16 km
2014/07/31 20:53 KTHV 312053Z AUTO 23006KT 10SM CLR 27/14 A3008 RMK AO2 SLP186 T02720144 58002
KFDK - Frederick, Maryland, USA
Distance from station: W 47mi, 75km
Updated: Thu, 31-Jul-2014 4:45pm EDT
Clear
Clear
 Wind from calm
Wind: Calm
Temperature: 82°F , 28°C
Heat Index: 84°F , 29°C
Dew Point: 64°F , 18°C
Humidity: 55%
Barometer: 30.11 inHg , 1019.6 hPa
Clouds: Clear
Visibility: 10 miles , 16 km
2014/07/31 20:45 KFDK 312045Z 00000KT 10SM SKC 28/18 A3011
 
KESN - Easton/Newnam, Maryland, USA
Distance from station: SSE 48mi, 78km
Updated: Thu, 31-Jul-2014 4:45pm EDT
Partly cloudy
Partly cloudy
 Wind from WSW
Wind: WSW 8 mph , 13 km/h
Temperature: 84°F , 29°C
Heat Index: 85°F , 29°C
Dew Point: 64°F , 18°C
Humidity: 51%
Barometer: 30.13 inHg , 1020.3 hPa
Clouds: Partly cloudy
Visibility: 10 miles , 16 km
Cloud details: Partly cloudy 6000 ft
2014/07/31 20:45 KESN 312045Z 24007KT 10SM SCT060 29/18 A3013
KDCA - Washington/Natl, Washington D.c., USA
Distance from station: SW 49mi, 79km
Updated: Thu, 31-Jul-2014 4:52pm EDT
Mostly cloudy
Mostly cloudy
 Wind from SSW
Wind: SSW 5 mph , 7 km/h
Temperature: 88°F , 31°C
Dew Point: 57°F , 14°C
Humidity: 35%
Barometer: 30.08 inHg , 1018.6 hPa
Clouds: Mostly cloudy
Visibility: 10 miles , 16 km
Cloud details: Partly cloudy 7000 ft
Mostly cloudy 9000 ft
Mostly cloudy 11000 ft
Mostly cloudy 25000 ft
2014/07/31 20:52 KDCA 312052Z 20004KT 10SM SCT070 BKN090 BKN110 BKN250 31/14 A3008 RMK AO2 SLP186 T03060139 58004
 
KLNS - Lancaster, Pennsylvania, USA
Distance from station: N 49mi, 79km
Updated: Thu, 31-Jul-2014 4:53pm EDT
Partly cloudy
Partly cloudy
 Wind from SW
Wind: SW 12 mph , 19 km/h
Temperature: 79°F , 26°C
Dew Point: 57°F , 14°C
Humidity: 48%
Barometer: 30.08 inHg , 1018.6 hPa
Clouds: Partly cloudy
Visibility: 10 miles , 16 km
Cloud details: Partly cloudy 5500 ft
2014/07/31 20:53 KLNS 312053Z 23010KT 10SM SCT055 26/14 A3008 RMK AO2 SLP185 T02610144 56001
KILG - Wilmington, Delaware, USA
Distance from station: ENE 50mi, 81km
Updated: Thu, 31-Jul-2014 4:51pm EDT
Clear
Clear
 Wind from WSW
Wind: WSW 14 mph , 22 km/h
Temperature: 84°F , 29°C
Heat Index: 84°F , 29°C
Dew Point: 59°F , 15°C
Humidity: 43%
Barometer: 30.10 inHg , 1019.3 hPa
Clouds: Clear
Visibility: 10 miles , 16 km
2014/07/31 20:51 KILG 312051Z 25012KT 10SM CLR 29/15 A3010 RMK AO2 SLP191 T02890150 57001